sensor_id;sensor_type;location;lat;lon;timestamp;temperature;humidity
3086;DHT22;52812;48.960;9.108;2022-09-29T00:01:30;5.70;99.90
3086;DHT22;52812;48.960;9.108;2022-09-29T00:03:56;5.80;99.90
3086;DHT22;52812;48.960;9.108;2022-09-29T00:06:21;5.80;99.90
3086;DHT22;52812;48.960;9.108;2022-09-29T00:08:47;5.80;99.90
3086;DHT22;52812;48.960;9.108;2022-09-29T00:11:16;5.90;99.90
3086;DHT22;52812;48.960;9.108;2022-09-29T00:13:42;6.00;99.90
3086;DHT22;52812;48.960;9.108;2022-09-29T00:16:08;6.10;99.90
3086;DHT22;52812;48.960;9.108;2022-09-29T00:18:34;6.10;99.90
3086;DHT22;52812;48.960;9.108;2022-09-29T00:21:05;6.20;99.90
3086;DHT22;52812;48.960;9.108;2022-09-29T00:23:33;6.20;99.90
3086;DHT22;52812;48.960;9.108;2022-09-29T00:26:13;6.20;99.90
3086;DHT22;52812;48.960;9.108;2022-09-29T00:28:44;6.20;99.90
3086;DHT22;52812;48.960;9.108;2022-09-29T00:31:10;6.20;99.90
3086;DHT22;52812;48.960;9.108;2022-09-29T00:33:37;6.20;99.90
3086;DHT22;52812;48.960;9.108;2022-09-29T00:36:05;6.10;99.90
3086;DHT22;52812;48.960;9.108;2022-09-29T00:38:32;6.00;99.90
3086;DHT22;52812;48.960;9.108;2022-09-29T00:40:58;6.00;99.90
3086;DHT22;52812;48.960;9.108;2022-09-29T00:43:55;5.90;99.90
3086;DHT22;52812;48.960;9.108;2022-09-29T00:46:36;5.90;99.90
3086;DHT22;52812;48.960;9.108;2022-09-29T00:49:23;5.80;99.90
3086;DHT22;52812;48.960;9.108;2022-09-29T00:52:05;5.80;99.90
3086;DHT22;52812;48.960;9.108;2022-09-29T00:54:36;5.70;99.90
3086;DHT22;52812;48.960;9.108;2022-09-29T00:57:06;5.70;99.90
3086;DHT22;52812;48.960;9.108;2022-09-29T00:59:46;5.70;99.90
3086;DHT22;52812;48.960;9.108;2022-09-29T01:02:16;5.70;99.90
3086;DHT22;52812;48.960;9.108;2022-09-29T01:04:42;5.70;99.90
3086;DHT22;52812;48.960;9.108;2022-09-29T01:07:09;5.70;99.90
3086;DHT22;52812;48.960;9.108;2022-09-29T01:09:37;5.60;99.90
3086;DHT22;52812;48.960;9.108;2022-09-29T01:12:04;5.50;99.90
3086;DHT22;52812;48.960;9.108;2022-09-29T01:14:31;5.50;99.90
3086;DHT22;52812;48.960;9.108;2022-09-29T01:16:58;5.40;99.90
3086;DHT22;52812;48.960;9.108;2022-09-29T01:19:43;5.40;99.90
3086;DHT22;52812;48.960;9.108;2022-09-29T01:25:45;5.30;99.90
3086;DHT22;52812;48.960;9.108;2022-09-29T01:28:20;5.20;99.90
3086;DHT22;52812;48.960;9.108;2022-09-29T01:31:29;5.20;99.90
3086;DHT22;52812;48.960;9.108;2022-09-29T01:39:37;5.30;99.90
3086;DHT22;52812;48.960;9.108;2022-09-29T01:42:15;5.40;99.90
3086;DHT22;52812;48.960;9.108;2022-09-29T01:44:51;5.40;99.90
3086;DHT22;52812;48.960;9.108;2022-09-29T01:49:50;5.40;99.90
3086;DHT22;52812;48.960;9.108;2022-09-29T01:52:21;5.50;99.90
3086;DHT22;52812;48.960;9.108;2022-09-29T01:54:53;5.60;99.90
3086;DHT22;52812;48.960;9.108;2022-09-29T02:00:14;5.70;99.90
3086;DHT22;52812;48.960;9.108;2022-09-29T02:03:23;5.70;99.90
3086;DHT22;52812;48.960;9.108;2022-09-29T02:05:55;5.70;99.90
3086;DHT22;52812;48.960;9.108;2022-09-29T02:08:26;5.80;99.90
3086;DHT22;52812;48.960;9.108;2022-09-29T02:11:08;5.80;99.90
3086;DHT22;52812;48.960;9.108;2022-09-29T02:13:40;5.90;99.90
3086;DHT22;52812;48.960;9.108;2022-09-29T02:16:10;5.90;99.90
3086;DHT22;52812;48.960;9.108;2022-09-29T02:18:43;6.00;99.90
3086;DHT22;52812;48.960;9.108;2022-09-29T02:21:12;6.00;99.90
3086;DHT22;52812;48.960;9.108;2022-09-29T02:23:37;6.10;99.90
3086;DHT22;52812;48.960;9.108;2022-09-29T02:26:03;6.10;99.90
3086;DHT22;52812;48.960;9.108;2022-09-29T02:28:28;6.20;99.90
3086;DHT22;52812;48.960;9.108;2022-09-29T02:30:54;6.30;99.90
3086;DHT22;52812;48.960;9.108;2022-09-29T02:33:22;6.30;99.90
3086;DHT22;52812;48.960;9.108;2022-09-29T02:44:46;6.30;99.90
3086;DHT22;52812;48.960;9.108;2022-09-29T02:47:36;6.30;99.90
3086;DHT22;52812;48.960;9.108;2022-09-29T02:53:19;6.40;99.90
3086;DHT22;52812;48.960;9.108;2022-09-29T02:56:15;6.40;99.90
3086;DHT22;52812;48.960;9.108;2022-09-29T02:59:09;6.40;99.90
3086;DHT22;52812;48.960;9.108;2022-09-29T03:01:49;6.40;99.90
3086;DHT22;52812;48.960;9.108;2022-09-29T03:04:16;6.40;99.90
3086;DHT22;52812;48.960;9.108;2022-09-29T03:06:42;6.40;99.90
3086;DHT22;52812;48.960;9.108;2022-09-29T03:09:07;6.40;99.90
3086;DHT22;52812;48.960;9.108;2022-09-29T03:11:33;6.50;99.90
3086;DHT22;52812;48.960;9.108;2022-09-29T03:13:59;6.50;99.90
3086;DHT22;52812;48.960;9.108;2022-09-29T03:16:25;6.40;99.90
3086;DHT22;52812;48.960;9.108;2022-09-29T03:18:51;6.50;99.90
3086;DHT22;52812;48.960;9.108;2022-09-29T03:21:16;6.50;99.90
3086;DHT22;52812;48.960;9.108;2022-09-29T03:23:42;6.60;99.90
3086;DHT22;52812;48.960;9.108;2022-09-29T03:26:07;6.60;99.90
3086;DHT22;52812;48.960;9.108;2022-09-29T03:28:33;6.60;99.90
3086;DHT22;52812;48.960;9.108;2022-09-29T03:31:06;6.70;99.90
3086;DHT22;52812;48.960;9.108;2022-09-29T03:33:34;6.70;99.90
3086;DHT22;52812;48.960;9.108;2022-09-29T03:36:01;6.70;99.90
3086;DHT22;52812;48.960;9.108;2022-09-29T03:38:28;6.70;99.90
3086;DHT22;52812;48.960;9.108;2022-09-29T03:40:54;6.80;99.90
3086;DHT22;52812;48.960;9.108;2022-09-29T03:43:19;6.80;99.90
3086;DHT22;52812;48.960;9.108;2022-09-29T03:45:50;6.80;99.90
3086;DHT22;52812;48.960;9.108;2022-09-29T03:48:16;6.80;99.90
3086;DHT22;52812;48.960;9.108;2022-09-29T03:50:44;6.90;99.90
3086;DHT22;52812;48.960;9.108;2022-09-29T03:53:09;6.90;99.90
3086;DHT22;52812;48.960;9.108;2022-09-29T03:55:35;6.80;99.90
3086;DHT22;52812;48.960;9.108;2022-09-29T03:58:00;6.80;99.90
3086;DHT22;52812;48.960;9.108;2022-09-29T04:00:26;6.80;99.90
3086;DHT22;52812;48.960;9.108;2022-09-29T04:02:55;6.80;99.90
3086;DHT22;52812;48.960;9.108;2022-09-29T04:05:21;6.80;99.90
3086;DHT22;52812;48.960;9.108;2022-09-29T04:07:47;6.70;99.90
3086;DHT22;52812;48.960;9.108;2022-09-29T04:10:12;6.70;99.90
3086;DHT22;52812;48.960;9.108;2022-09-29T04:12:38;6.70;99.90
3086;DHT22;52812;48.960;9.108;2022-09-29T04:15:04;6.60;99.90
3086;DHT22;52812;48.960;9.108;2022-09-29T04:17:30;6.60;99.90
3086;DHT22;52812;48.960;9.108;2022-09-29T04:19:55;6.50;99.90
3086;DHT22;52812;48.960;9.108;2022-09-29T04:22:21;6.60;99.90
3086;DHT22;52812;48.960;9.108;2022-09-29T04:24:46;6.60;99.90
3086;DHT22;52812;48.960;9.108;2022-09-29T04:27:15;6.60;99.90
3086;DHT22;52812;48.960;9.108;2022-09-29T04:29:41;6.50;99.90
3086;DHT22;52812;48.960;9.108;2022-09-29T04:32:07;6.50;99.90
3086;DHT22;52812;48.960;9.108;2022-09-29T04:34:33;6.50;99.90
3086;DHT22;52812;48.960;9.108;2022-09-29T04:36:59;6.60;99.90
3086;DHT22;52812;48.960;9.108;2022-09-29T04:39:24;6.60;99.90
3086;DHT22;52812;48.960;9.108;2022-09-29T04:41:50;6.60;99.90
3086;DHT22;52812;48.960;9.108;2022-09-29T04:44:15;6.60;99.90
3086;DHT22;52812;48.960;9.108;2022-09-29T04:46:41;6.50;99.90
3086;DHT22;52812;48.960;9.108;2022-09-29T04:49:07;6.40;99.90
3086;DHT22;52812;48.960;9.108;2022-09-29T04:51:32;6.40;99.90
3086;DHT22;52812;48.960;9.108;2022-09-29T04:53:58;6.50;99.90
3086;DHT22;52812;48.960;9.108;2022-09-29T04:56:24;6.40;99.90
3086;DHT22;52812;48.960;9.108;2022-09-29T04:58:50;6.40;99.90
3086;DHT22;52812;48.960;9.108;2022-09-29T05:01:15;6.40;99.90
3086;DHT22;52812;48.960;9.108;2022-09-29T05:03:41;6.40;99.90
3086;DHT22;52812;48.960;9.108;2022-09-29T05:06:08;6.40;99.90
3086;DHT22;52812;48.960;9.108;2022-09-29T05:08:34;6.30;99.90
3086;DHT22;52812;48.960;9.108;2022-09-29T05:11:07;6.30;99.90
3086;DHT22;52812;48.960;9.108;2022-09-29T05:13:33;6.30;99.90
3086;DHT22;52812;48.960;9.108;2022-09-29T05:15:59;6.30;99.90
3086;DHT22;52812;48.960;9.108;2022-09-29T05:18:25;6.20;99.90
3086;DHT22;52812;48.960;9.108;2022-09-29T05:20:51;6.20;99.90
3086;DHT22;52812;48.960;9.108;2022-09-29T05:23:16;6.20;99.90
3086;DHT22;52812;48.960;9.108;2022-09-29T05:25:42;6.20;99.90
3086;DHT22;52812;48.960;9.108;2022-09-29T05:28:09;6.10;99.90
3086;DHT22;52812;48.960;9.108;2022-09-29T05:30:36;6.20;99.90
3086;DHT22;52812;48.960;9.108;2022-09-29T05:33:01;6.20;99.90
3086;DHT22;52812;48.960;9.108;2022-09-29T05:35:27;6.10;99.90
3086;DHT22;52812;48.960;9.108;2022-09-29T05:37:52;6.10;99.90
3086;DHT22;52812;48.960;9.108;2022-09-29T05:40:18;6.20;99.90
3086;DHT22;52812;48.960;9.108;2022-09-29T05:42:44;6.20;99.90
3086;DHT22;52812;48.960;9.108;2022-09-29T05:45:10;6.20;99.90
3086;DHT22;52812;48.960;9.108;2022-09-29T05:47:39;6.20;99.90
3086;DHT22;52812;48.960;9.108;2022-09-29T05:50:05;6.20;99.90
3086;DHT22;52812;48.960;9.108;2022-09-29T05:52:31;6.20;99.90
3086;DHT22;52812;48.960;9.108;2022-09-29T05:54:56;6.20;99.90
3086;DHT22;52812;48.960;9.108;2022-09-29T05:57:22;6.10;99.90
3086;DHT22;52812;48.960;9.108;2022-09-29T05:59:47;6.20;99.90
3086;DHT22;52812;48.960;9.108;2022-09-29T06:02:13;6.20;99.90
3086;DHT22;52812;48.960;9.108;2022-09-29T06:04:40;6.30;99.90
3086;DHT22;52812;48.960;9.108;2022-09-29T06:07:05;6.30;99.90
3086;DHT22;52812;48.960;9.108;2022-09-29T06:09:32;6.40;99.90
3086;DHT22;52812;48.960;9.108;2022-09-29T06:11:59;6.50;99.90
3086;DHT22;52812;48.960;9.108;2022-09-29T06:14:24;6.50;99.90
3086;DHT22;52812;48.960;9.108;2022-09-29T06:16:50;6.60;99.90
3086;DHT22;52812;48.960;9.108;2022-09-29T06:19:15;6.70;99.90
3086;DHT22;52812;48.960;9.108;2022-09-29T06:21:41;6.70;99.90
3086;DHT22;52812;48.960;9.108;2022-09-29T06:24:07;6.80;99.90
3086;DHT22;52812;48.960;9.108;2022-09-29T06:26:32;6.80;99.90
3086;DHT22;52812;48.960;9.108;2022-09-29T06:28:58;6.80;99.90
3086;DHT22;52812;48.960;9.108;2022-09-29T06:31:26;6.90;99.90
3086;DHT22;52812;48.960;9.108;2022-09-29T06:33:54;7.00;99.90
3086;DHT22;52812;48.960;9.108;2022-09-29T06:36:33;7.10;99.90
3086;DHT22;52812;48.960;9.108;2022-09-29T06:39:17;7.20;99.90
3086;DHT22;52812;48.960;9.108;2022-09-29T06:41:44;7.30;99.90
3086;DHT22;52812;48.960;9.108;2022-09-29T06:44:16;7.30;99.90
3086;DHT22;52812;48.960;9.108;2022-09-29T06:46:42;7.30;99.90
3086;DHT22;52812;48.960;9.108;2022-09-29T06:49:07;7.30;99.90
3086;DHT22;52812;48.960;9.108;2022-09-29T06:51:34;7.40;99.90
3086;DHT22;52812;48.960;9.108;2022-09-29T06:54:00;7.40;99.90
3086;DHT22;52812;48.960;9.108;2022-09-29T06:56:25;7.50;99.90
3086;DHT22;52812;48.960;9.108;2022-09-29T06:58:51;7.70;99.90
3086;DHT22;52812;48.960;9.108;2022-09-29T07:01:16;7.90;99.90
3086;DHT22;52812;48.960;9.108;2022-09-29T07:03:43;8.10;99.90
3086;DHT22;52812;48.960;9.108;2022-09-29T07:06:09;8.30;99.90
3086;DHT22;52812;48.960;9.108;2022-09-29T07:08:36;8.50;99.90
3086;DHT22;52812;48.960;9.108;2022-09-29T07:11:04;8.50;99.90
3086;DHT22;52812;48.960;9.108;2022-09-29T07:13:30;8.60;99.90
3086;DHT22;52812;48.960;9.108;2022-09-29T07:15:56;8.80;99.90
3086;DHT22;52812;48.960;9.108;2022-09-29T07:18:27;8.90;99.90
3086;DHT22;52812;48.960;9.108;2022-09-29T07:20:52;9.00;99.90
3086;DHT22;52812;48.960;9.108;2022-09-29T07:23:20;9.10;99.90
3086;DHT22;52812;48.960;9.108;2022-09-29T07:25:46;9.30;99.90
3086;DHT22;52812;48.960;9.108;2022-09-29T07:28:11;9.20;99.90
3086;DHT22;52812;48.960;9.108;2022-09-29T07:30:37;9.20;99.90
3086;DHT22;52812;48.960;9.108;2022-09-29T07:33:03;9.20;99.90
3086;DHT22;52812;48.960;9.108;2022-09-29T07:35:29;9.20;99.90
3086;DHT22;52812;48.960;9.108;2022-09-29T07:37:54;9.20;99.90
3086;DHT22;52812;48.960;9.108;2022-09-29T07:40:21;9.20;99.90
3086;DHT22;52812;48.960;9.108;2022-09-29T07:42:48;9.20;99.90
3086;DHT22;52812;48.960;9.108;2022-09-29T07:45:17;9.40;99.90
3086;DHT22;52812;48.960;9.108;2022-09-29T07:47:42;9.60;99.90
3086;DHT22;52812;48.960;9.108;2022-09-29T07:50:09;9.80;99.90
3086;DHT22;52812;48.960;9.108;2022-09-29T07:52:34;9.80;99.90
3086;DHT22;52812;48.960;9.108;2022-09-29T07:55:01;9.80;99.90
3086;DHT22;52812;48.960;9.108;2022-09-29T07:57:26;9.70;99.90
3086;DHT22;52812;48.960;9.108;2022-09-29T07:59:52;9.80;99.90
3086;DHT22;52812;48.960;9.108;2022-09-29T08:02:21;9.80;99.90
3086;DHT22;52812;48.960;9.108;2022-09-29T08:04:47;9.90;99.90
3086;DHT22;52812;48.960;9.108;2022-09-29T08:07:12;10.00;99.90
3086;DHT22;52812;48.960;9.108;2022-09-29T08:09:38;10.20;99.90
3086;DHT22;52812;48.960;9.108;2022-09-29T08:12:04;10.10;99.90
3086;DHT22;52812;48.960;9.108;2022-09-29T08:14:30;10.20;99.90
3086;DHT22;52812;48.960;9.108;2022-09-29T08:16:55;10.30;99.90
3086;DHT22;52812;48.960;9.108;2022-09-29T08:19:21;10.30;99.90
3086;DHT22;52812;48.960;9.108;2022-09-29T08:21:46;10.30;99.90
3086;DHT22;52812;48.960;9.108;2022-09-29T08:24:14;10.30;99.90
3086;DHT22;52812;48.960;9.108;2022-09-29T08:26:41;10.30;99.90
3086;DHT22;52812;48.960;9.108;2022-09-29T08:29:07;10.40;99.90
3086;DHT22;52812;48.960;9.108;2022-09-29T08:31:32;10.50;99.90
3086;DHT22;52812;48.960;9.108;2022-09-29T08:33:58;10.40;99.90
3086;DHT22;52812;48.960;9.108;2022-09-29T08:36:24;10.30;99.90
3086;DHT22;52812;48.960;9.108;2022-09-29T08:38:51;10.40;99.90
3086;DHT22;52812;48.960;9.108;2022-09-29T08:43:55;10.60;99.90
3086;DHT22;52812;48.960;9.108;2022-09-29T08:46:36;10.80;99.90
3086;DHT22;52812;48.960;9.108;2022-09-29T08:49:12;10.80;99.90
3086;DHT22;52812;48.960;9.108;2022-09-29T08:51:42;10.80;99.90
3086;DHT22;52812;48.960;9.108;2022-09-29T08:54:33;10.90;99.90
3086;DHT22;52812;48.960;9.108;2022-09-29T08:56:59;11.10;99.90
3086;DHT22;52812;48.960;9.108;2022-09-29T08:59:27;11.30;99.90
3086;DHT22;52812;48.960;9.108;2022-09-29T09:05:11;11.40;99.90
3086;DHT22;52812;48.960;9.108;2022-09-29T09:21:41;12.10;99.90
3086;DHT22;52812;48.960;9.108;2022-09-29T09:26:56;12.30;99.90
3086;DHT22;52812;48.960;9.108;2022-09-29T09:31:57;12.50;99.90
3086;DHT22;52812;48.960;9.108;2022-09-29T09:34:41;12.40;99.90
3086;DHT22;52812;48.960;9.108;2022-09-29T09:37:29;12.50;99.90
3086;DHT22;52812;48.960;9.108;2022-09-29T09:40:05;12.60;99.90
3086;DHT22;52812;48.960;9.108;2022-09-29T09:42:42;12.50;99.90
3086;DHT22;52812;48.960;9.108;2022-09-29T09:45:19;12.70;99.90
3086;DHT22;52812;48.960;9.108;2022-09-29T09:48:03;12.90;99.90
3086;DHT22;52812;48.960;9.108;2022-09-29T09:50:32;12.90;99.90
3086;DHT22;52812;48.960;9.108;2022-09-29T09:53:10;12.70;99.90
3086;DHT22;52812;48.960;9.108;2022-09-29T09:55:36;12.50;99.90
3086;DHT22;52812;48.960;9.108;2022-09-29T10:00:42;12.60;99.90
3086;DHT22;52812;48.960;9.108;2022-09-29T10:03:09;12.50;99.90
3086;DHT22;52812;48.960;9.108;2022-09-29T10:05:44;12.40;99.90
3086;DHT22;52812;48.960;9.108;2022-09-29T10:08:30;12.50;99.90
3086;DHT22;52812;48.960;9.108;2022-09-29T10:11:02;12.70;99.90
3086;DHT22;52812;48.960;9.108;2022-09-29T10:13:29;12.80;99.90
3086;DHT22;52812;48.960;9.108;2022-09-29T10:16:19;13.00;99.90
3086;DHT22;52812;48.960;9.108;2022-09-29T10:18:49;13.30;99.90
3086;DHT22;52812;48.960;9.108;2022-09-29T10:23:58;13.40;99.90
3086;DHT22;52812;48.960;9.108;2022-09-29T10:26:42;13.50;99.90
3086;DHT22;52812;48.960;9.108;2022-09-29T10:29:32;13.60;99.90
3086;DHT22;52812;48.960;9.108;2022-09-29T10:32:12;13.80;99.90
3086;DHT22;52812;48.960;9.108;2022-09-29T10:37:36;14.00;99.90
3086;DHT22;52812;48.960;9.108;2022-09-29T10:42:42;14.10;99.90
3086;DHT22;52812;48.960;9.108;2022-09-29T10:45:15;14.10;99.90
3086;DHT22;52812;48.960;9.108;2022-09-29T10:47:46;14.10;99.90
3086;DHT22;52812;48.960;9.108;2022-09-29T10:50:21;13.90;99.90
3086;DHT22;52812;48.960;9.108;2022-09-29T10:52:53;13.60;99.90
3086;DHT22;52812;48.960;9.108;2022-09-29T10:55:47;13.50;99.90
3086;DHT22;52812;48.960;9.108;2022-09-29T10:58:37;13.50;99.90
3086;DHT22;52812;48.960;9.108;2022-09-29T11:01:15;13.70;99.90
3086;DHT22;52812;48.960;9.108;2022-09-29T11:03:54;13.60;99.90
3086;DHT22;52812;48.960;9.108;2022-09-29T11:06:28;13.80;99.90
3086;DHT22;52812;48.960;9.108;2022-09-29T11:09:02;13.80;99.90
3086;DHT22;52812;48.960;9.108;2022-09-29T11:11:37;13.60;99.90
3086;DHT22;52812;48.960;9.108;2022-09-29T11:14:03;13.60;99.90
3086;DHT22;52812;48.960;9.108;2022-09-29T11:16:33;13.60;99.90
3086;DHT22;52812;48.960;9.108;2022-09-29T11:19:08;13.70;99.90
3086;DHT22;52812;48.960;9.108;2022-09-29T11:29:51;14.20;99.90
3086;DHT22;52812;48.960;9.108;2022-09-29T11:32:39;14.10;99.90
3086;DHT22;52812;48.960;9.108;2022-09-29T11:37:48;14.20;99.90
3086;DHT22;52812;48.960;9.108;2022-09-29T11:49:19;14.30;99.90
3086;DHT22;52812;48.960;9.108;2022-09-29T11:57:09;14.40;99.90
3086;DHT22;52812;48.960;9.108;2022-09-29T12:03:20;14.60;99.90
3086;DHT22;52812;48.960;9.108;2022-09-29T12:05:30;14.50;99.90
3086;DHT22;52812;48.960;9.108;2022-09-29T12:11:01;14.70;99.90
3086;DHT22;52812;48.960;9.108;2022-09-29T12:16:22;14.70;99.90
3086;DHT22;52812;48.960;9.108;2022-09-29T12:18:57;14.70;99.90
3086;DHT22;52812;48.960;9.108;2022-09-29T12:21:36;14.50;99.90
3086;DHT22;52812;48.960;9.108;2022-09-29T12:24:06;14.60;99.90
3086;DHT22;52812;48.960;9.108;2022-09-29T12:26:35;14.70;99.90
3086;DHT22;52812;48.960;9.108;2022-09-29T12:31:41;14.70;99.90
3086;DHT22;52812;48.960;9.108;2022-09-29T12:37:03;14.90;99.90
3086;DHT22;52812;48.960;9.108;2022-09-29T12:50:29;14.70;99.90
3086;DHT22;52812;48.960;9.108;2022-09-29T12:53:14;14.70;99.90
3086;DHT22;52812;48.960;9.108;2022-09-29T12:56:09;14.70;99.90
3086;DHT22;52812;48.960;9.108;2022-09-29T12:58:53;14.90;99.90
3086;DHT22;52812;48.960;9.108;2022-09-29T13:01:32;14.90;99.90
3086;DHT22;52812;48.960;9.108;2022-09-29T13:04:09;14.90;99.90
3086;DHT22;52812;48.960;9.108;2022-09-29T13:06:45;14.80;99.90
3086;DHT22;52812;48.960;9.108;2022-09-29T13:12:29;15.00;99.90
3086;DHT22;52812;48.960;9.108;2022-09-29T13:17:55;15.20;99.90
3086;DHT22;52812;48.960;9.108;2022-09-29T13:20:36;15.00;99.90
3086;DHT22;52812;48.960;9.108;2022-09-29T13:23:27;14.90;99.90
3086;DHT22;52812;48.960;9.108;2022-09-29T13:28:55;14.80;99.90
3086;DHT22;52812;48.960;9.108;2022-09-29T13:31:26;14.80;99.90
3086;DHT22;52812;48.960;9.108;2022-09-29T13:33:55;14.70;99.90
3086;DHT22;52812;48.960;9.108;2022-09-29T13:36:36;14.80;99.90
3086;DHT22;52812;48.960;9.108;2022-09-29T13:39:05;14.90;99.90
3086;DHT22;52812;48.960;9.108;2022-09-29T13:41:32;14.90;99.90
3086;DHT22;52812;48.960;9.108;2022-09-29T13:49:24;15.00;99.90
3086;DHT22;52812;48.960;9.108;2022-09-29T13:54:35;14.80;99.90
3086;DHT22;52812;48.960;9.108;2022-09-29T14:02:40;14.80;99.90
3086;DHT22;52812;48.960;9.108;2022-09-29T14:08:05;14.60;99.90
3086;DHT22;52812;48.960;9.108;2022-09-29T14:13:11;14.50;99.90
3086;DHT22;52812;48.960;9.108;2022-09-29T14:16:00;14.50;99.90
3086;DHT22;52812;48.960;9.108;2022-09-29T14:18:44;14.40;99.90
3086;DHT22;52812;48.960;9.108;2022-09-29T14:23:59;14.40;99.90
3086;DHT22;52812;48.960;9.108;2022-09-29T14:26:44;14.40;99.90
3086;DHT22;52812;48.960;9.108;2022-09-29T14:29:27;14.30;99.90
3086;DHT22;52812;48.960;9.108;2022-09-29T14:31:56;14.20;99.90
3086;DHT22;52812;48.960;9.108;2022-09-29T14:34:26;14.10;99.90
3086;DHT22;52812;48.960;9.108;2022-09-29T14:36:54;14.10;99.90
3086;DHT22;52812;48.960;9.108;2022-09-29T14:39:22;14.00;99.90
3086;DHT22;52812;48.960;9.108;2022-09-29T14:41:49;13.90;99.90
3086;DHT22;52812;48.960;9.108;2022-09-29T14:44:50;13.90;99.90
3086;DHT22;52812;48.960;9.108;2022-09-29T14:47:47;13.90;99.90
3086;DHT22;52812;48.960;9.108;2022-09-29T14:59:04;13.80;99.90
3086;DHT22;52812;48.960;9.108;2022-09-29T15:01:31;13.80;99.90
3086;DHT22;52812;48.960;9.108;2022-09-29T15:04:11;13.70;99.90
3086;DHT22;52812;48.960;9.108;2022-09-29T15:06:50;13.80;99.90
3086;DHT22;52812;48.960;9.108;2022-09-29T15:11:48;13.80;99.90
3086;DHT22;52812;48.960;9.108;2022-09-29T15:27:37;13.70;99.90
3086;DHT22;52812;48.960;9.108;2022-09-29T15:30:04;13.80;99.90
3086;DHT22;52812;48.960;9.108;2022-09-29T15:32:36;13.80;99.90
3086;DHT22;52812;48.960;9.108;2022-09-29T15:35:04;13.70;99.90
3086;DHT22;52812;48.960;9.108;2022-09-29T15:40:16;13.70;99.90
3086;DHT22;52812;48.960;9.108;2022-09-29T15:42:43;13.70;99.90
3086;DHT22;52812;48.960;9.108;2022-09-29T15:45:19;13.60;99.90
3086;DHT22;52812;48.960;9.108;2022-09-29T15:47:48;13.60;99.90
3086;DHT22;52812;48.960;9.108;2022-09-29T15:50:23;13.60;99.90
3086;DHT22;52812;48.960;9.108;2022-09-29T15:52:50;13.60;99.90
3086;DHT22;52812;48.960;9.108;2022-09-29T15:55:21;13.50;99.90
3086;DHT22;52812;48.960;9.108;2022-09-29T15:57:48;13.40;99.90
3086;DHT22;52812;48.960;9.108;2022-09-29T16:03:11;13.30;99.90
3086;DHT22;52812;48.960;9.108;2022-09-29T16:05:40;13.30;99.90
3086;DHT22;52812;48.960;9.108;2022-09-29T16:08:16;13.30;99.90
3086;DHT22;52812;48.960;9.108;2022-09-29T16:10:57;13.20;99.90
3086;DHT22;52812;48.960;9.108;2022-09-29T16:13:26;13.20;99.90
3086;DHT22;52812;48.960;9.108;2022-09-29T16:15:59;13.20;99.90
3086;DHT22;52812;48.960;9.108;2022-09-29T16:18:49;13.10;99.90
3086;DHT22;52812;48.960;9.108;2022-09-29T16:21:18;13.00;99.90
3086;DHT22;52812;48.960;9.108;2022-09-29T16:26:44;12.90;99.90
3086;DHT22;52812;48.960;9.108;2022-09-29T16:31:40;12.70;99.90
3086;DHT22;52812;48.960;9.108;2022-09-29T16:37:01;12.60;99.90
3086;DHT22;52812;48.960;9.108;2022-09-29T16:39:39;12.60;99.90
3086;DHT22;52812;48.960;9.108;2022-09-29T16:42:06;12.50;99.90
3086;DHT22;52812;48.960;9.108;2022-09-29T16:44:43;12.40;99.90
3086;DHT22;52812;48.960;9.108;2022-09-29T16:49:52;12.40;99.90
3086;DHT22;52812;48.960;9.108;2022-09-29T16:55:26;12.20;99.90
3086;DHT22;52812;48.960;9.108;2022-09-29T16:58:07;12.20;99.90
3086;DHT22;52812;48.960;9.108;2022-09-29T17:00:34;12.00;99.90
3086;DHT22;52812;48.960;9.108;2022-09-29T17:03:00;11.90;99.90
3086;DHT22;52812;48.960;9.108;2022-09-29T17:05:33;11.90;99.90
3086;DHT22;52812;48.960;9.108;2022-09-29T17:08:01;11.70;99.90
3086;DHT22;52812;48.960;9.108;2022-09-29T17:10:27;11.50;99.90
3086;DHT22;52812;48.960;9.108;2022-09-29T17:12:52;11.40;99.90
3086;DHT22;52812;48.960;9.108;2022-09-29T17:15:19;11.20;99.90
3086;DHT22;52812;48.960;9.108;2022-09-29T17:17:46;11.10;99.90
3086;DHT22;52812;48.960;9.108;2022-09-29T17:20:14;11.00;99.90
3086;DHT22;52812;48.960;9.108;2022-09-29T17:22:41;11.10;99.90
3086;DHT22;52812;48.960;9.108;2022-09-29T17:25:07;11.10;99.90
3086;DHT22;52812;48.960;9.108;2022-09-29T17:27:35;11.10;99.90
3086;DHT22;52812;48.960;9.108;2022-09-29T17:30:22;11.10;99.90
3086;DHT22;52812;48.960;9.108;2022-09-29T17:32:50;11.00;99.90
3086;DHT22;52812;48.960;9.108;2022-09-29T17:35:18;10.90;99.90
3086;DHT22;52812;48.960;9.108;2022-09-29T17:37:45;11.00;99.90
3086;DHT22;52812;48.960;9.108;2022-09-29T17:41:04;11.00;99.90
3086;DHT22;52812;48.960;9.108;2022-09-29T17:43:03;11.00;99.90
3086;DHT22;52812;48.960;9.108;2022-09-29T17:45:30;11.00;99.90
3086;DHT22;52812;48.960;9.108;2022-09-29T17:48:00;11.00;99.90
3086;DHT22;52812;48.960;9.108;2022-09-29T17:50:39;11.00;99.90
3086;DHT22;52812;48.960;9.108;2022-09-29T17:53:07;11.00;99.90
3086;DHT22;52812;48.960;9.108;2022-09-29T17:55:34;11.00;99.90
3086;DHT22;52812;48.960;9.108;2022-09-29T17:58:00;11.00;99.90
3086;DHT22;52812;48.960;9.108;2022-09-29T18:00:35;11.00;99.90
3086;DHT22;52812;48.960;9.108;2022-09-29T18:03:08;11.00;99.90
3086;DHT22;52812;48.960;9.108;2022-09-29T18:05:35;11.00;99.90
3086;DHT22;52812;48.960;9.108;2022-09-29T18:08:03;11.00;99.90
3086;DHT22;52812;48.960;9.108;2022-09-29T18:10:45;11.00;99.90
3086;DHT22;52812;48.960;9.108;2022-09-29T18:13:11;10.90;99.90
3086;DHT22;52812;48.960;9.108;2022-09-29T18:15:37;10.90;99.90
3086;DHT22;52812;48.960;9.108;2022-09-29T18:18:06;10.90;99.90
3086;DHT22;52812;48.960;9.108;2022-09-29T18:20:34;10.80;99.90
3086;DHT22;52812;48.960;9.108;2022-09-29T18:23:00;10.80;99.90
3086;DHT22;52812;48.960;9.108;2022-09-29T18:25:31;10.80;99.90
3086;DHT22;52812;48.960;9.108;2022-09-29T18:27:58;10.80;99.90
3086;DHT22;52812;48.960;9.108;2022-09-29T18:30:25;10.70;99.90
3086;DHT22;52812;48.960;9.108;2022-09-29T18:32:53;10.70;99.90
3086;DHT22;52812;48.960;9.108;2022-09-29T18:35:34;10.70;99.90
3086;DHT22;52812;48.960;9.108;2022-09-29T18:38:01;10.70;99.90
3086;DHT22;52812;48.960;9.108;2022-09-29T18:40:29;10.70;99.90
3086;DHT22;52812;48.960;9.108;2022-09-29T18:42:55;10.70;99.90
3086;DHT22;52812;48.960;9.108;2022-09-29T18:45:31;10.60;99.90
3086;DHT22;52812;48.960;9.108;2022-09-29T18:48:00;10.60;99.90
3086;DHT22;52812;48.960;9.108;2022-09-29T18:50:34;10.60;99.90
3086;DHT22;52812;48.960;9.108;2022-09-29T18:53:00;10.50;99.90
3086;DHT22;52812;48.960;9.108;2022-09-29T18:55:28;10.50;99.90
3086;DHT22;52812;48.960;9.108;2022-09-29T18:58:03;10.40;99.90
3086;DHT22;52812;48.960;9.108;2022-09-29T19:00:32;10.40;99.90
3086;DHT22;52812;48.960;9.108;2022-09-29T19:03:00;10.30;99.90
3086;DHT22;52812;48.960;9.108;2022-09-29T19:05:28;10.30;99.90
3086;DHT22;52812;48.960;9.108;2022-09-29T19:07:58;10.30;99.90
3086;DHT22;52812;48.960;9.108;2022-09-29T19:10:25;10.20;99.90
3086;DHT22;52812;48.960;9.108;2022-09-29T19:12:52;10.10;99.90
3086;DHT22;52812;48.960;9.108;2022-09-29T19:15:23;10.10;99.90
3086;DHT22;52812;48.960;9.108;2022-09-29T19:17:50;10.00;99.90
3086;DHT22;52812;48.960;9.108;2022-09-29T19:20:16;9.90;99.90
3086;DHT22;52812;48.960;9.108;2022-09-29T19:22:44;9.80;99.90
3086;DHT22;52812;48.960;9.108;2022-09-29T19:25:14;9.70;99.90